Time;durP1;ratioP1;P1;durP2;ratioP2;P2;SDS_P1;SDS_P2;PMS_P1;PMS_P2;Temp;Humidity;BMP_temperature;BMP_pressure;BME280_temperature;BME280_humidity;BME280_pressure;Samples;Min_cycle;Max_cycle;Signal;HPM_P1;HPM_P2
2021/08/05 00:01:59;;;;;;;7.13;2.40;;;;;;;;;;5076274;28;20485;-74
2021/08/05 00:04:25;;;;;;;3.00;1.80;;;;;;;;;;5091762;28;20430;-75
2021/08/05 00:06:51;;;;;;;4.20;3.80;;;;;;;;;;5091630;28;20468;-74
2021/08/05 00:09:17;;;;;;;5.30;3.00;;;;;;;;;;5073043;28;20443;-74
2021/08/05 00:11:42;;;;;;;3.43;2.33;;;;;;;;;;5071778;28;20422;-74
2021/08/05 00:14:08;;;;;;;2.50;2.30;;;;;;;;;;5071382;28;20382;-74
2021/08/05 00:16:34;;;;;;;2.60;2.40;;;;;;;;;;5070961;28;20397;-74
2021/08/05 00:19:00;;;;;;;2.53;1.90;;;;;;;;;;5071334;28;20460;-74
2021/08/05 00:21:26;;;;;;;5.53;2.33;;;;;;;;;;5071527;28;20409;-74
2021/08/05 00:23:52;;;;;;;1.97;1.87;;;;;;;;;;5071553;28;20411;-74
2021/08/05 00:26:18;;;;;;;1.93;1.83;;;;;;;;;;5070321;28;20451;-74
2021/08/05 00:28:44;;;;;;;2.27;2.17;;;;;;;;;;5068680;28;20559;-75
2021/08/05 00:31:11;;;;;;;2.43;2.23;;;;;;;;;;5065665;28;20401;-74
2021/08/05 00:33:36;;;;;;;2.70;1.40;;;;;;;;;;5071472;28;20789;-74
2021/08/05 00:36:03;;;;;;;2.70;2.13;;;;;;;;;;5082008;28;20422;-75
2021/08/05 00:38:28;;;;;;;4.53;4.00;;;;;;;;;;5093930;28;20404;-74
2021/08/05 00:40:55;;;;;;;3.50;3.30;;;;;;;;;;5095702;28;20885;-74
2021/08/05 00:43:21;;;;;;;6.93;3.07;;;;;;;;;;5095368;28;20388;-75
2021/08/05 00:45:47;;;;;;;2.73;2.50;;;;;;;;;;5095274;28;20487;-74
2021/08/05 00:48:13;;;;;;;2.90;1.50;;;;;;;;;;5077945;28;20474;-74
2021/08/05 00:50:39;;;;;;;1.80;1.70;;;;;;;;;;5074719;28;20484;-75
2021/08/05 00:53:05;;;;;;;2.03;1.83;;;;;;;;;;5073881;28;20787;-74
2021/08/05 00:55:31;;;;;;;3.40;3.13;;;;;;;;;;5073086;28;20414;-75
2021/08/05 00:57:57;;;;;;;3.10;2.30;;;;;;;;;;5076604;28;20497;-75
2021/08/05 01:00:25;;;;;;;5.83;3.13;;;;;;;;;;5071096;28;20958;-75
2021/08/05 01:02:59;;;;;;;2.30;2.20;;;;;;;;;;5068292;28;20462;-75
2021/08/05 01:05:28;;;;;;;3.03;2.00;;;;;;;;;;5060341;28;20414;-74
2021/08/05 01:08:02;;;;;;;2.50;2.40;;;;;;;;;;5074250;28;20500;-74
2021/08/05 01:10:29;;;;;;;2.80;2.60;;;;;;;;;;5074734;28;20896;-74
2021/08/05 01:13:08;;;;;;;3.23;2.90;;;;;;;;;;5074536;28;20463;-74
2021/08/05 01:15:34;;;;;;;3.37;3.07;;;;;;;;;;5074693;28;20404;-74
2021/08/05 01:18:02;;;;;;;4.63;2.80;;;;;;;;;;5074672;28;20412;-74
2021/08/05 01:20:30;;;;;;;2.67;2.50;;;;;;;;;;5073229;28;20984;-74
2021/08/05 01:23:05;;;;;;;1.70;1.53;;;;;;;;;;5074243;28;20388;-74
2021/08/05 01:25:34;;;;;;;1.93;1.20;;;;;;;;;;5074256;28;20397;-74
2021/08/05 01:28:01;;;;;;;2.40;1.80;;;;;;;;;;5072703;28;20523;-74
2021/08/05 01:30:27;;;;;;;7.00;3.40;;;;;;;;;;5067904;28;20458;-75
2021/08/05 01:32:55;;;;;;;2.93;2.70;;;;;;;;;;5074690;28;20472;-74
2021/08/05 01:35:21;;;;;;;3.00;2.80;;;;;;;;;;5087929;28;20881;-74
2021/08/05 01:37:48;;;;;;;2.47;2.30;;;;;;;;;;5073509;28;20550;-75
2021/08/05 01:40:14;;;;;;;4.70;4.40;;;;;;;;;;5074090;28;20480;-74
2021/08/05 01:42:40;;;;;;;6.73;3.10;;;;;;;;;;5076748;28;21137;-74
2021/08/05 01:45:09;;;;;;;3.97;3.67;;;;;;;;;;5075616;28;20988;-75
2021/08/05 01:47:36;;;;;;;1.93;1.80;;;;;;;;;;5074505;28;20434;-74
2021/08/05 01:50:02;;;;;;;2.73;2.53;;;;;;;;;;5072047;28;20483;-75
2021/08/05 01:52:28;;;;;;;2.70;2.50;;;;;;;;;;5073646;28;20428;-74
2021/08/05 01:54:54;;;;;;;11.80;3.70;;;;;;;;;;5074042;28;20439;-75
2021/08/05 01:57:20;;;;;;;4.57;2.40;;;;;;;;;;5072652;28;20432;-75
2021/08/05 01:59:46;;;;;;;2.60;1.83;;;;;;;;;;5070990;28;20411;-74
2021/08/05 02:02:13;;;;;;;4.30;3.30;;;;;;;;;;5072203;28;20440;-74
2021/08/05 02:05:00;;;;;;;2.60;2.40;;;;;;;;;;5073021;28;20437;-75
2021/08/05 02:07:31;;;;;;;2.80;2.47;;;;;;;;;;5068153;28;20417;-74
2021/08/05 02:09:56;;;;;;;2.23;2.00;;;;;;;;;;5053797;28;20466;-74
2021/08/05 02:12:23;;;;;;;3.30;3.00;;;;;;;;;;5064873;28;20450;-74
2021/08/05 02:14:52;;;;;;;4.03;2.70;;;;;;;;;;5073427;28;20396;-75
2021/08/05 02:17:18;;;;;;;2.70;1.67;;;;;;;;;;5087925;28;21003;-74
2021/08/05 02:19:45;;;;;;;4.10;3.63;;;;;;;;;;5065281;28;20476;-74
2021/08/05 02:22:11;;;;;;;2.10;2.00;;;;;;;;;;5073768;28;20442;-74
2021/08/05 02:24:37;;;;;;;3.43;3.13;;;;;;;;;;5072341;28;20805;-74
2021/08/05 02:27:04;;;;;;;3.17;2.33;;;;;;;;;;5071301;28;20879;-74
2021/08/05 02:29:31;;;;;;;3.10;2.77;;;;;;;;;;5073644;28;20474;-74
2021/08/05 02:31:57;;;;;;;3.00;2.77;;;;;;;;;;5071854;28;20402;-75
2021/08/05 02:34:24;;;;;;;4.23;3.83;;;;;;;;;;5073554;28;20381;-74
2021/08/05 02:36:50;;;;;;;2.63;2.43;;;;;;;;;;5073185;28;20785;-75
2021/08/05 02:39:16;;;;;;;3.13;2.93;;;;;;;;;;5073122;28;21012;-74
2021/08/05 02:41:42;;;;;;;6.60;3.20;;;;;;;;;;5073153;28;20393;-74
2021/08/05 02:44:09;;;;;;;3.27;2.40;;;;;;;;;;5090890;28;20453;-74
2021/08/05 02:46:35;;;;;;;4.17;3.07;;;;;;;;;;5080228;28;20433;-74
2021/08/05 02:49:01;;;;;;;7.07;4.00;;;;;;;;;;5070572;28;20530;-74
2021/08/05 02:51:27;;;;;;;2.10;2.00;;;;;;;;;;5072409;28;20792;-75
2021/08/05 02:53:55;;;;;;;8.93;2.77;;;;;;;;;;5062326;28;20543;-75
2021/08/05 02:56:21;;;;;;;3.07;2.83;;;;;;;;;;5070462;28;20409;-74
2021/08/05 02:58:47;;;;;;;4.43;3.30;;;;;;;;;;5072353;28;20454;-74
2021/08/05 03:01:13;;;;;;;4.60;2.37;;;;;;;;;;5081580;28;20458;-75
2021/08/05 03:03:41;;;;;;;2.43;2.23;;;;;;;;;;5072270;28;20438;-75
2021/08/05 03:06:07;;;;;;;4.60;2.23;;;;;;;;;;5061347;28;20465;-74
2021/08/05 03:08:37;;;;;;;2.93;2.73;;;;;;;;;;5055053;28;20486;-75
2021/08/05 03:11:03;;;;;;;3.80;3.10;;;;;;;;;;5052693;28;20897;-74
2021/08/05 03:13:29;;;;;;;4.40;3.50;;;;;;;;;;5052125;28;20442;-75
2021/08/05 03:15:55;;;;;;;3.90;3.60;;;;;;;;;;5070521;28;20426;-75
2021/08/05 03:18:21;;;;;;;4.83;2.53;;;;;;;;;;5071897;28;20424;-75
2021/08/05 03:20:47;;;;;;;4.20;3.10;;;;;;;;;;5072247;28;20513;-75
2021/08/05 03:23:13;;;;;;;2.60;2.40;;;;;;;;;;5072369;28;20414;-75
2021/08/05 03:25:39;;;;;;;5.17;2.57;;;;;;;;;;5072255;28;20388;-74
2021/08/05 03:28:05;;;;;;;4.27;3.97;;;;;;;;;;5070666;28;20429;-75
2021/08/05 03:30:31;;;;;;;5.37;2.60;;;;;;;;;;5108163;28;20448;-74
2021/08/05 03:33:00;;;;;;;2.83;2.60;;;;;;;;;;5108277;28;20949;-74
2021/08/05 03:35:26;;;;;;;6.57;4.27;;;;;;;;;;5081204;28;20457;-74
2021/08/05 03:37:52;;;;;;;2.10;1.73;;;;;;;;;;5065949;28;20867;-75
2021/08/05 03:40:17;;;;;;;2.30;2.20;;;;;;;;;;5070600;28;20412;-74
2021/08/05 03:42:43;;;;;;;3.30;3.10;;;;;;;;;;5072017;28;20489;-75
2021/08/05 03:45:09;;;;;;;2.93;2.10;;;;;;;;;;5071741;28;20483;-75
2021/08/05 03:47:35;;;;;;;5.60;2.70;;;;;;;;;;5070599;28;20857;-74
2021/08/05 03:50:01;;;;;;;6.80;3.60;;;;;;;;;;5063579;28;20787;-74
2021/08/05 03:52:28;;;;;;;3.03;2.83;;;;;;;;;;5071641;28;20400;-74
2021/08/05 03:54:53;;;;;;;4.03;2.93;;;;;;;;;;5070672;28;20420;-74
2021/08/05 03:57:19;;;;;;;2.80;2.53;;;;;;;;;;5062570;28;20411;-75
2021/08/05 03:59:45;;;;;;;2.63;2.40;;;;;;;;;;5071828;28;20377;-74
2021/08/05 04:02:11;;;;;;;3.37;2.77;;;;;;;;;;5051832;28;20731;-75
2021/08/05 04:04:38;;;;;;;3.20;2.60;;;;;;;;;;5051706;28;20867;-74
2021/08/05 04:07:05;;;;;;;1.80;1.70;;;;;;;;;;5059382;28;20393;-75
2021/08/05 04:09:31;;;;;;;2.00;1.80;;;;;;;;;;5071341;28;20926;-75
2021/08/05 04:11:57;;;;;;;2.60;2.03;;;;;;;;;;5070805;28;20857;-75
2021/08/05 04:14:23;;;;;;;3.20;2.73;;;;;;;;;;5071279;28;20466;-76
2021/08/05 04:16:49;;;;;;;2.57;2.37;;;;;;;;;;5067464;28;20392;-74
2021/08/05 04:19:15;;;;;;;1.53;1.43;;;;;;;;;;5072757;28;20461;-75
2021/08/05 04:21:41;;;;;;;3.10;1.87;;;;;;;;;;5091678;28;20457;-75
2021/08/05 04:24:07;;;;;;;2.63;2.43;;;;;;;;;;5073511;28;20419;-75
2021/08/05 04:26:33;;;;;;;2.33;2.13;;;;;;;;;;5071174;28;20411;-75
2021/08/05 04:28:59;;;;;;;6.90;4.07;;;;;;;;;;5069921;28;21150;-75
2021/08/05 04:31:25;;;;;;;2.57;2.37;;;;;;;;;;5079975;28;20461;-75
2021/08/05 04:33:51;;;;;;;1.93;1.83;;;;;;;;;;5091313;28;20399;-76
2021/08/05 04:36:17;;;;;;;2.60;2.40;;;;;;;;;;5107144;28;20396;-77
2021/08/05 04:38:42;;;;;;;2.73;2.53;;;;;;;;;;5087951;28;20945;-77
2021/08/05 04:41:08;;;;;;;3.63;2.17;;;;;;;;;;5070439;28;20774;-77
2021/08/05 04:43:34;;;;;;;5.03;4.57;;;;;;;;;;5087093;28;20903;-76
2021/08/05 04:46:00;;;;;;;3.73;2.97;;;;;;;;;;5066028;28;20406;-76
2021/08/05 04:48:29;;;;;;;3.00;2.70;;;;;;;;;;5073913;28;20443;-75
2021/08/05 04:50:55;;;;;;;7.23;4.40;;;;;;;;;;5068029;28;20715;-76
2021/08/05 04:53:21;;;;;;;4.00;3.63;;;;;;;;;;5072328;28;20469;-76
2021/08/05 04:55:47;;;;;;;2.37;2.17;;;;;;;;;;5068985;28;20422;-76
2021/08/05 04:58:13;;;;;;;3.73;3.00;;;;;;;;;;5086196;28;20477;-76
2021/08/05 05:00:40;;;;;;;2.20;1.93;;;;;;;;;;5071095;28;20402;-77
2021/08/05 05:03:07;;;;;;;3.37;3.17;;;;;;;;;;5071258;28;20377;-76
2021/08/05 05:05:33;;;;;;;3.40;2.30;;;;;;;;;;5071186;28;20481;-76
2021/08/05 05:08:12;;;;;;;4.20;3.07;;;;;;;;;;5087580;28;20457;-76
2021/08/05 05:10:38;;;;;;;1.60;1.50;;;;;;;;;;5080628;28;20809;-76
2021/08/05 05:13:04;;;;;;;5.90;1.93;;;;;;;;;;5071556;28;20404;-77
2021/08/05 05:15:30;;;;;;;3.07;2.20;;;;;;;;;;5070454;28;20495;-77
2021/08/05 05:17:56;;;;;;;3.57;3.23;;;;;;;;;;5062761;28;20435;-76
2021/08/05 05:20:21;;;;;;;2.97;2.50;;;;;;;;;;5091083;28;20587;-77
2021/08/05 05:22:47;;;;;;;2.53;1.83;;;;;;;;;;5089375;28;20418;-76
2021/08/05 05:25:14;;;;;;;1.97;1.70;;;;;;;;;;5095285;28;20438;-76
2021/08/05 05:27:41;;;;;;;3.87;1.60;;;;;;;;;;5064149;28;20825;-75
2021/08/05 05:30:07;;;;;;;2.53;2.13;;;;;;;;;;5054156;28;20444;-76
2021/08/05 05:32:33;;;;;;;5.00;4.70;;;;;;;;;;5054503;28;20435;-75
2021/08/05 05:34:59;;;;;;;2.13;2.03;;;;;;;;;;5054455;28;20417;-75
2021/08/05 05:37:26;;;;;;;3.07;2.73;;;;;;;;;;5054181;28;20794;-76
2021/08/05 05:39:53;;;;;;;4.23;3.83;;;;;;;;;;5070273;28;20442;-76
2021/08/05 05:42:19;;;;;;;3.70;2.67;;;;;;;;;;5072525;28;20439;-76
2021/08/05 05:44:45;;;;;;;2.43;2.20;;;;;;;;;;5074202;28;20429;-76
2021/08/05 05:47:11;;;;;;;2.50;2.30;;;;;;;;;;5065480;28;20420;-76
2021/08/05 05:49:37;;;;;;;4.77;2.20;;;;;;;;;;5073977;28;20897;-76
2021/08/05 05:52:04;;;;;;;1.60;1.50;;;;;;;;;;5073997;28;20487;-77
2021/08/05 05:54:30;;;;;;;2.90;2.70;;;;;;;;;;5074139;28;20460;-77
2021/08/05 05:56:56;;;;;;;5.03;1.60;;;;;;;;;;5074382;28;20424;-76
2021/08/05 05:59:22;;;;;;;2.43;2.33;;;;;;;;;;5074061;28;20439;-76
2021/08/05 06:01:48;;;;;;;2.60;2.40;;;;;;;;;;5065186;28;20386;-76
2021/08/05 06:04:14;;;;;;;5.10;4.10;;;;;;;;;;5073850;28;20385;-76
2021/08/05 06:06:40;;;;;;;3.53;2.27;;;;;;;;;;5073217;28;20382;-76
2021/08/05 06:09:06;;;;;;;1.47;1.37;;;;;;;;;;5073676;28;20472;-76
2021/08/05 06:11:32;;;;;;;1.50;1.40;;;;;;;;;;5073166;28;20430;-76
2021/08/05 06:13:57;;;;;;;2.40;1.73;;;;;;;;;;5085042;28;20425;-76
2021/08/05 06:16:24;;;;;;;1.97;1.77;;;;;;;;;;5066072;28;20418;-76
2021/08/05 06:18:50;;;;;;;2.77;2.57;;;;;;;;;;5073222;28;20515;-76
2021/08/05 06:21:16;;;;;;;1.97;1.80;;;;;;;;;;5073709;28;20982;-76
2021/08/05 06:23:42;;;;;;;3.20;2.73;;;;;;;;;;5073183;28;20868;-76
2021/08/05 06:26:08;;;;;;;1.87;1.77;;;;;;;;;;5067722;28;20475;-76
2021/08/05 06:28:35;;;;;;;2.50;2.40;;;;;;;;;;5070222;28;20487;-76
2021/08/05 06:31:01;;;;;;;3.10;2.77;;;;;;;;;;5069175;28;20400;-76
2021/08/05 06:33:27;;;;;;;3.57;1.80;;;;;;;;;;5070257;28;20540;-77
2021/08/05 06:35:53;;;;;;;2.23;1.57;;;;;;;;;;5065666;28;20501;-75
2021/08/05 06:38:19;;;;;;;2.40;2.20;;;;;;;;;;5070027;28;20469;-76
2021/08/05 06:40:45;;;;;;;2.63;2.43;;;;;;;;;;5067637;28;20503;-76
2021/08/05 06:43:11;;;;;;;3.70;1.97;;;;;;;;;;5070500;28;20931;-77
2021/08/05 06:45:37;;;;;;;1.67;1.57;;;;;;;;;;5066667;28;20443;-77
2021/08/05 06:48:04;;;;;;;2.57;2.40;;;;;;;;;;5063543;28;20487;-76
2021/08/05 06:50:30;;;;;;;2.07;1.97;;;;;;;;;;5067222;28;20764;-76
2021/08/05 06:52:56;;;;;;;1.20;1.10;;;;;;;;;;5068741;28;20383;-76
2021/08/05 06:55:22;;;;;;;2.43;2.33;;;;;;;;;;5067106;28;20797;-76
2021/08/05 06:57:47;;;;;;;1.20;1.10;;;;;;;;;;5068844;28;20453;-76
2021/08/05 07:00:14;;;;;;;5.70;2.23;;;;;;;;;;5064758;28;20941;-76
2021/08/05 07:02:40;;;;;;;1.47;1.37;;;;;;;;;;5069526;28;20924;-76
2021/08/05 07:05:09;;;;;;;2.00;1.90;;;;;;;;;;5067215;28;20461;-77
2021/08/05 07:07:35;;;;;;;1.40;1.13;;;;;;;;;;5060398;28;20447;-76
2021/08/05 07:10:02;;;;;;;1.57;1.07;;;;;;;;;;5070167;28;20441;-76
2021/08/05 07:12:28;;;;;;;4.70;1.83;;;;;;;;;;5070887;28;20452;-76
2021/08/05 07:14:54;;;;;;;2.90;2.20;;;;;;;;;;5067769;28;20497;-76
2021/08/05 07:17:20;;;;;;;2.87;2.67;;;;;;;;;;5057282;28;20414;-77
2021/08/05 07:19:46;;;;;;;2.20;2.03;;;;;;;;;;5070718;28;20417;-76
2021/08/05 07:22:12;;;;;;;1.63;1.17;;;;;;;;;;5066721;28;20434;-75
2021/08/05 07:24:38;;;;;;;2.20;1.33;;;;;;;;;;5085841;28;20439;-76
2021/08/05 07:27:05;;;;;;;1.33;1.23;;;;;;;;;;5069895;28;21094;-75
2021/08/05 07:29:31;;;;;;;1.60;1.50;;;;;;;;;;5063961;28;20434;-76
2021/08/05 07:32:01;;;;;;;0.97;0.97;;;;;;;;;;5069675;28;20431;-75
2021/08/05 07:34:27;;;;;;;1.77;1.37;;;;;;;;;;5066793;28;21579;-75
2021/08/05 07:36:53;;;;;;;2.53;2.43;;;;;;;;;;5049618;28;20427;-76
2021/08/05 07:39:19;;;;;;;2.57;1.20;;;;;;;;;;5053485;28;20458;-76
2021/08/05 07:41:45;;;;;;;2.30;1.47;;;;;;;;;;5049468;28;20471;-76
2021/08/05 07:44:11;;;;;;;1.47;1.37;;;;;;;;;;5055646;28;20793;-76
2021/08/05 07:46:37;;;;;;;3.10;2.20;;;;;;;;;;5055297;28;22286;-76
2021/08/05 07:49:03;;;;;;;3.53;2.60;;;;;;;;;;5058723;28;20475;-75
2021/08/05 07:51:29;;;;;;;2.20;2.10;;;;;;;;;;5071850;28;20469;-75
2021/08/05 07:53:55;;;;;;;3.37;2.07;;;;;;;;;;5065915;28;20401;-75
2021/08/05 07:56:21;;;;;;;1.20;1.03;;;;;;;;;;5069725;28;20421;-77
2021/08/05 07:58:50;;;;;;;1.70;1.60;;;;;;;;;;5069484;28;21119;-75
2021/08/05 08:01:17;;;;;;;1.57;1.40;;;;;;;;;;5064645;28;20931;-75
2021/08/05 08:03:43;;;;;;;2.20;1.43;;;;;;;;;;5066789;28;22132;-75
2021/08/05 08:06:09;;;;;;;4.77;3.83;;;;;;;;;;5065558;28;20390;-76
2021/08/05 08:08:35;;;;;;;2.43;1.80;;;;;;;;;;5059938;28;20477;-75
2021/08/05 08:11:01;;;;;;;2.03;1.83;;;;;;;;;;5070722;28;20439;-75
2021/08/05 08:13:28;;;;;;;1.47;1.37;;;;;;;;;;5057700;28;20840;-75
2021/08/05 08:15:54;;;;;;;2.47;2.37;;;;;;;;;;5064943;28;20458;-75
2021/08/05 08:18:20;;;;;;;1.90;1.80;;;;;;;;;;5060869;28;20453;-75
2021/08/05 08:20:46;;;;;;;1.20;1.10;;;;;;;;;;5070603;28;20438;-76
2021/08/05 08:23:12;;;;;;;1.67;1.57;;;;;;;;;;5067343;28;20462;-76
2021/08/05 08:25:38;;;;;;;2.60;2.40;;;;;;;;;;5069642;28;20390;-76
2021/08/05 08:28:05;;;;;;;2.00;1.60;;;;;;;;;;5066418;28;20435;-76
2021/08/05 08:30:31;;;;;;;2.50;2.30;;;;;;;;;;5067479;28;20418;-75
2021/08/05 08:32:57;;;;;;;5.87;1.43;;;;;;;;;;5070882;28;20530;-75
2021/08/05 08:35:23;;;;;;;5.00;2.70;;;;;;;;;;5060862;28;20389;-76
2021/08/05 08:37:49;;;;;;;4.27;3.00;;;;;;;;;;5065939;28;20529;-76
2021/08/05 08:40:16;;;;;;;1.77;1.67;;;;;;;;;;5071217;28;20982;-76
2021/08/05 08:42:42;;;;;;;3.83;2.77;;;;;;;;;;5069221;28;20803;-75
2021/08/05 08:45:09;;;;;;;1.73;1.63;;;;;;;;;;5063951;28;20438;-76
2021/08/05 08:47:35;;;;;;;2.40;1.53;;;;;;;;;;5061913;28;20447;-76
2021/08/05 08:50:02;;;;;;;2.70;1.67;;;;;;;;;;5069479;28;20478;-75
2021/08/05 08:52:30;;;;;;;2.43;2.23;;;;;;;;;;5054570;28;20817;-75
2021/08/05 08:54:56;;;;;;;1.60;1.47;;;;;;;;;;5069706;28;20745;-75
2021/08/05 08:57:25;;;;;;;4.43;1.57;;;;;;;;;;5067662;28;20429;-75
2021/08/05 08:59:51;;;;;;;2.87;1.90;;;;;;;;;;5070968;28;20411;-75
2021/08/05 09:02:17;;;;;;;2.40;2.20;;;;;;;;;;5064927;28;20804;-75
2021/08/05 09:04:45;;;;;;;2.17;1.97;;;;;;;;;;5068101;28;20519;-76
2021/08/05 09:07:10;;;;;;;3.97;2.07;;;;;;;;;;5065519;28;20411;-76
2021/08/05 09:09:36;;;;;;;1.70;1.60;;;;;;;;;;5072058;28;20575;-76
2021/08/05 09:12:02;;;;;;;4.37;2.90;;;;;;;;;;5069719;28;20427;-76
2021/08/05 09:14:41;;;;;;;3.00;2.23;;;;;;;;;;5065935;28;20518;-77
2021/08/05 09:17:22;;;;;;;3.53;1.90;;;;;;;;;;5061405;28;20431;-76
2021/08/05 09:19:53;;;;;;;2.50;2.30;;;;;;;;;;5068336;28;20480;-77
2021/08/05 09:22:31;;;;;;;2.87;1.53;;;;;;;;;;5067803;28;20492;-77
2021/08/05 09:24:57;;;;;;;1.17;1.07;;;;;;;;;;5068084;28;20933;-76
2021/08/05 09:27:33;;;;;;;2.23;1.20;;;;;;;;;;5072427;28;20879;-76
2021/08/05 09:29:59;;;;;;;2.17;2.07;;;;;;;;;;5067226;28;20812;-76
2021/08/05 09:32:29;;;;;;;2.40;1.70;;;;;;;;;;5059920;28;20448;-76
2021/08/05 09:35:08;;;;;;;1.17;1.07;;;;;;;;;;5069739;28;20431;-76
2021/08/05 09:37:38;;;;;;;1.23;1.13;;;;;;;;;;5071960;28;20455;-76
2021/08/05 09:40:14;;;;;;;1.57;1.47;;;;;;;;;;5053160;28;20966;-76
2021/08/05 09:42:40;;;;;;;2.60;2.00;;;;;;;;;;5070324;28;20779;-76
2021/08/05 09:45:07;;;;;;;1.73;1.17;;;;;;;;;;5072903;28;20439;-76
2021/08/05 09:47:42;;;;;;;1.50;1.40;;;;;;;;;;5064466;28;20811;-76
2021/08/05 09:50:08;;;;;;;1.80;0.97;;;;;;;;;;5063792;28;20507;-76
2021/08/05 09:52:35;;;;;;;2.10;1.73;;;;;;;;;;5056608;28;20414;-76
2021/08/05 09:55:05;;;;;;;1.57;1.47;;;;;;;;;;5066625;28;20567;-76
2021/08/05 09:57:32;;;;;;;2.13;1.10;;;;;;;;;;5073602;28;20436;-76
2021/08/05 09:59:59;;;;;;;0.70;0.63;;;;;;;;;;5073088;28;20473;-76
2021/08/05 10:02:26;;;;;;;3.47;1.90;;;;;;;;;;5073780;28;20465;-76
2021/08/05 10:04:53;;;;;;;1.20;1.10;;;;;;;;;;5088592;28;20803;-77
2021/08/05 10:07:19;;;;;;;1.57;1.47;;;;;;;;;;5061384;28;20534;-76
2021/08/05 10:09:45;;;;;;;1.87;1.77;;;;;;;;;;5053373;28;20428;-76
2021/08/05 10:12:19;;;;;;;1.23;1.00;;;;;;;;;;5067108;28;20422;-76
2021/08/05 10:14:46;;;;;;;1.30;0.80;;;;;;;;;;5073194;28;20424;-76
2021/08/05 10:17:13;;;;;;;0.83;0.83;;;;;;;;;;5063460;28;20900;-77
2021/08/05 10:19:40;;;;;;;0.80;0.80;;;;;;;;;;5072872;28;20458;-75
2021/08/05 10:22:07;;;;;;;1.03;0.93;;;;;;;;;;5073088;28;20443;-76
2021/08/05 10:24:35;;;;;;;2.03;1.63;;;;;;;;;;5056011;28;20415;-76
2021/08/05 10:27:01;;;;;;;0.90;0.90;;;;;;;;;;5053262;28;20426;-76
2021/08/05 10:29:27;;;;;;;0.60;0.60;;;;;;;;;;5084082;28;20972;-76
2021/08/05 10:31:54;;;;;;;1.10;0.80;;;;;;;;;;5088994;28;20496;-76
2021/08/05 10:34:20;;;;;;;1.07;0.90;;;;;;;;;;5058391;28;20420;-76
2021/08/05 10:36:47;;;;;;;1.03;1.00;;;;;;;;;;5071876;28;20415;-76
2021/08/05 10:39:12;;;;;;;0.90;0.80;;;;;;;;;;5059825;28;20446;-76
2021/08/05 10:41:39;;;;;;;1.47;0.73;;;;;;;;;;5057166;28;20435;-77
2021/08/05 10:44:05;;;;;;;1.10;1.00;;;;;;;;;;5070137;28;20449;-76
2021/08/05 10:46:34;;;;;;;0.80;0.80;;;;;;;;;;5062981;28;20416;-76
2021/08/05 10:49:04;;;;;;;1.17;1.00;;;;;;;;;;5072888;28;20473;-76
2021/08/05 10:51:34;;;;;;;0.70;0.60;;;;;;;;;;5071516;28;20802;-76
2021/08/05 10:54:00;;;;;;;1.63;1.53;;;;;;;;;;5071729;28;20913;-76
2021/08/05 10:56:27;;;;;;;0.80;0.80;;;;;;;;;;5072318;28;20514;-76
2021/08/05 10:59:02;;;;;;;1.10;0.93;;;;;;;;;;5087603;28;20485;-76
2021/08/05 11:01:45;;;;;;;1.53;1.20;;;;;;;;;;5073791;28;20477;-77
2021/08/05 11:04:30;;;;;;;1.13;0.80;;;;;;;;;;5093239;28;20773;-77
2021/08/05 11:06:56;;;;;;;0.73;0.70;;;;;;;;;;5065939;28;20790;-77
2021/08/05 11:09:30;;;;;;;0.70;0.70;;;;;;;;;;5072355;28;20562;-77
2021/08/05 11:11:56;;;;;;;1.70;0.80;;;;;;;;;;5072654;28;20412;-78
2021/08/05 11:14:25;;;;;;;0.70;0.70;;;;;;;;;;5071749;28;20436;-76
2021/08/05 11:16:51;;;;;;;0.80;0.70;;;;;;;;;;5072196;28;20456;-77
2021/08/05 11:19:20;;;;;;;0.70;0.60;;;;;;;;;;5071474;28;20542;-76
2021/08/05 11:21:46;;;;;;;2.30;1.10;;;;;;;;;;5071491;28;20520;-77
2021/08/05 11:24:32;;;;;;;0.67;0.60;;;;;;;;;;5072223;28;20530;-77
2021/08/05 11:27:11;;;;;;;1.43;1.00;;;;;;;;;;5071792;28;20426;-77
2021/08/05 11:29:37;;;;;;;0.60;0.50;;;;;;;;;;5071934;28;20463;-77
2021/08/05 11:32:21;;;;;;;0.63;0.63;;;;;;;;;;5072600;28;20456;-75
2021/08/05 11:34:53;;;;;;;0.90;0.90;;;;;;;;;;5072340;28;20434;-75
2021/08/05 11:37:19;;;;;;;1.03;0.93;;;;;;;;;;5070980;28;20433;-75
2021/08/05 11:39:50;;;;;;;1.07;0.97;;;;;;;;;;5052956;28;20786;-75
2021/08/05 11:42:17;;;;;;;1.00;0.73;;;;;;;;;;5062493;28;20918;-75
2021/08/05 11:44:45;;;;;;;1.27;0.60;;;;;;;;;;5081847;28;20460;-75
2021/08/05 11:47:23;;;;;;;0.70;0.60;;;;;;;;;;5071745;28;20407;-77
2021/08/05 11:49:57;;;;;;;0.73;0.67;;;;;;;;;;5071885;28;20815;-77
2021/08/05 11:52:24;;;;;;;0.60;0.60;;;;;;;;;;5060344;28;20781;-78
2021/08/05 11:54:50;;;;;;;2.83;1.00;;;;;;;;;;5070586;28;20912;-77
2021/08/05 11:57:17;;;;;;;1.30;0.77;;;;;;;;;;5071433;28;20455;-77
2021/08/05 11:59:47;;;;;;;1.13;1.13;;;;;;;;;;5095485;28;20409;-77
2021/08/05 12:02:16;;;;;;;0.73;0.70;;;;;;;;;;5101799;28;20407;-77
2021/08/05 12:04:43;;;;;;;1.03;0.70;;;;;;;;;;5075018;28;20410;-77
2021/08/05 12:07:35;;;;;;;1.20;1.10;;;;;;;;;;5065111;28;20436;-77
2021/08/05 12:10:22;;;;;;;0.80;0.63;;;;;;;;;;5071277;28;20469;-77
2021/08/05 12:12:53;;;;;;;0.60;0.53;;;;;;;;;;5073477;28;20469;-77
2021/08/05 12:15:23;;;;;;;1.13;0.80;;;;;;;;;;5074936;28;20441;-77
2021/08/05 12:17:50;;;;;;;0.60;0.60;;;;;;;;;;5075212;28;20428;-76
2021/08/05 12:20:36;;;;;;;0.70;0.70;;;;;;;;;;5074862;28;20498;-78
2021/08/05 12:23:08;;;;;;;0.70;0.60;;;;;;;;;;5053380;28;20521;-77
2021/08/05 12:25:39;;;;;;;0.60;0.60;;;;;;;;;;5073382;28;20434;-77
2021/08/05 12:28:08;;;;;;;0.67;0.60;;;;;;;;;;5074257;28;20431;-77
2021/08/05 12:30:36;;;;;;;1.13;0.60;;;;;;;;;;5074417;28;20463;-76
2021/08/05 12:33:10;;;;;;;0.60;0.50;;;;;;;;;;5090399;28;20423;-76
2021/08/05 12:35:36;;;;;;;0.70;0.60;;;;;;;;;;5077369;28;20475;-76
2021/08/05 12:38:10;;;;;;;1.03;1.03;;;;;;;;;;5076900;28;20529;-78
2021/08/05 12:40:37;;;;;;;0.70;0.50;;;;;;;;;;5077953;28;20415;-79
2021/08/05 12:43:06;;;;;;;0.70;0.60;;;;;;;;;;5074807;28;20506;-78
2021/08/05 12:45:33;;;;;;;1.00;0.70;;;;;;;;;;5069772;28;20945;-77
2021/08/05 12:48:01;;;;;;;0.70;0.60;;;;;;;;;;5077969;28;20438;-78
2021/08/05 12:50:27;;;;;;;0.70;0.60;;;;;;;;;;5078618;28;20552;-78
2021/08/05 12:52:53;;;;;;;0.77;0.77;;;;;;;;;;5077528;28;20492;-77
2021/08/05 12:55:19;;;;;;;1.00;1.00;;;;;;;;;;5078275;28;20410;-78
2021/08/05 12:57:45;;;;;;;0.77;0.77;;;;;;;;;;5093114;28;20458;-78
2021/08/05 13:00:24;;;;;;;0.60;0.60;;;;;;;;;;5078696;28;20411;-77
2021/08/05 13:03:02;;;;;;;0.70;0.70;;;;;;;;;;5058193;28;20415;-78
2021/08/05 13:05:28;;;;;;;0.73;0.70;;;;;;;;;;5062578;28;20437;-77
2021/08/05 13:07:54;;;;;;;0.70;0.70;;;;;;;;;;5075267;28;20519;-78
2021/08/05 13:10:26;;;;;;;0.70;0.70;;;;;;;;;;5077722;28;20473;-78
2021/08/05 13:12:52;;;;;;;0.80;0.73;;;;;;;;;;5076163;28;20419;-77
2021/08/05 13:15:31;;;;;;;0.80;0.80;;;;;;;;;;5075636;28;20417;-78
2021/08/05 13:18:00;;;;;;;0.67;0.53;;;;;;;;;;5078573;28;20453;-77
2021/08/05 13:20:25;;;;;;;1.60;1.30;;;;;;;;;;5080760;28;20435;-77
2021/08/05 13:22:52;;;;;;;0.67;0.67;;;;;;;;;;5096190;28;20506;-78
2021/08/05 13:25:19;;;;;;;0.90;0.90;;;;;;;;;;5076418;28;20998;-77
2021/08/05 13:27:45;;;;;;;0.70;0.70;;;;;;;;;;5081435;28;20806;-78
2021/08/05 13:30:18;;;;;;;1.00;0.90;;;;;;;;;;5098114;28;20553;-78
2021/08/05 13:32:48;;;;;;;0.70;0.60;;;;;;;;;;5081894;28;20427;-78
2021/08/05 13:35:15;;;;;;;0.70;0.60;;;;;;;;;;5077472;28;20468;-78
2021/08/05 13:37:43;;;;;;;0.80;0.60;;;;;;;;;;5081540;28;20962;-78
2021/08/05 13:40:29;;;;;;;0.70;0.70;;;;;;;;;;5077249;28;20835;-78
2021/08/05 13:42:55;;;;;;;1.30;1.00;;;;;;;;;;5076765;28;20784;-79
2021/08/05 13:45:21;;;;;;;0.80;0.60;;;;;;;;;;5092456;28;20430;-78
2021/08/05 13:47:48;;;;;;;0.90;0.90;;;;;;;;;;5076582;28;20458;-78
2021/08/05 13:50:28;;;;;;;0.60;0.57;;;;;;;;;;5076238;28;20468;-76
2021/08/05 13:52:55;;;;;;;0.97;0.93;;;;;;;;;;5090198;28;20460;-75
2021/08/05 13:55:22;;;;;;;0.80;0.70;;;;;;;;;;5073399;28;20426;-76
2021/08/05 13:57:48;;;;;;;0.77;0.60;;;;;;;;;;5073486;28;20547;-77
2021/08/05 14:00:14;;;;;;;0.60;0.60;;;;;;;;;;5089620;28;20831;-77
2021/08/05 14:02:41;;;;;;;0.60;0.50;;;;;;;;;;5073979;28;20501;-76
2021/08/05 14:05:08;;;;;;;0.90;0.80;;;;;;;;;;5074513;28;20494;-76
2021/08/05 14:07:33;;;;;;;0.87;0.60;;;;;;;;;;5064851;28;20439;-76
2021/08/05 14:10:00;;;;;;;1.00;1.00;;;;;;;;;;5073859;28;20463;-77
2021/08/05 14:12:26;;;;;;;0.70;0.50;;;;;;;;;;5078983;28;20519;-77
2021/08/05 14:14:52;;;;;;;1.00;0.90;;;;;;;;;;5094115;28;20490;-76
2021/08/05 14:17:18;;;;;;;0.60;0.50;;;;;;;;;;5076030;28;20438;-77
2021/08/05 14:19:44;;;;;;;0.60;0.60;;;;;;;;;;5065248;28;20412;-76
2021/08/05 14:22:11;;;;;;;0.93;0.87;;;;;;;;;;5073430;28;20829;-77
2021/08/05 14:24:37;;;;;;;0.60;0.53;;;;;;;;;;5072300;28;20403;-76
2021/08/05 14:27:03;;;;;;;1.10;0.83;;;;;;;;;;5073037;28;20421;-77
2021/08/05 14:29:29;;;;;;;1.53;0.77;;;;;;;;;;5075008;28;20530;-78
2021/08/05 14:31:55;;;;;;;0.60;0.53;;;;;;;;;;5088697;28;20857;-78
2021/08/05 14:34:21;;;;;;;0.90;0.90;;;;;;;;;;5094307;28;20915;-77
2021/08/05 14:36:47;;;;;;;0.60;0.50;;;;;;;;;;5110188;28;20418;-78
2021/08/05 14:39:13;;;;;;;0.60;0.50;;;;;;;;;;5094903;28;20449;-78
2021/08/05 14:41:39;;;;;;;0.60;0.60;;;;;;;;;;5111369;28;20415;-78
2021/08/05 14:44:09;;;;;;;0.60;0.50;;;;;;;;;;5097834;28;20426;-79
2021/08/05 14:46:46;;;;;;;1.43;0.67;;;;;;;;;;5074310;28;20446;-78